Terminal Aerodrome Forecast
Issued by NWS

Home | Current Version | Previous Version | Graphics & Text | Print | Product List | Glossary On
Versions: 1 2 3 4 5 6 7 8 9 10 11 12 13 14 15
000
FTUS43 KGRB 032325
TAFAUW
TAF
KAUW 032325Z 0400/0424 30007KT P6SM SCT050 BKN080
     FM040600 30004KT P6SM SCT090
     FM041500 30009KT P6SM BKN050
     FM042200 32007KT P6SM SCT045=

USA.gov is the U.S. government's official web portal to all federal, state and local government web resources and services.